Decoded Metar for VABB (BOMBAY in INDIA) (IATA:BOM) | Meteo·Mobile Aviation Weather
aviador You're here:

VABB Decoded Metar

BOMBAY in INDIA
Report Time2019-01-21 15:00:00
UTC Time2019-01-21 15:28:25
Flight Rules ifr IFR
Wind340° at 05 kt
W.Decomp.*RWY 32: 4.7 kt HW 1.8 kt RCW
RWY 27: 1.6 kt HW 4.7 kt RCW
W.Rank340° ranks 13
Current wind is below 340° avg. (5.2)
Visibility3000 m
Phenomena:Smoke
Clouds:N/A
Expected CloudBase > 2,400 ft AGL from Temp-Dew spread
CeilingNone
Temp25°C (ISA +10)
Dew Point19°C (69% RH)
QNH1013 hPa
Density Alt1,480 ft
Elevation26 ft
Report Wrong Elevation
Raw Report
VABB 211500Z 34005KT 3000 FU NSC 25/19 Q1013 NOSIG=

Extra information for VABB:More info

Metar Taf Metar & Taf Last 4 Metars F.Rules Stats Wind Profile Meteogram Temp Stats Airport Information Weather charts Add Link Nearby VenuesMetar ALERT Operation Metar Decoded Social comments